Time;durP1;ratioP1;P1;durP2;ratioP2;P2;SDS_P1;SDS_P2;PMS_P1;PMS_P2;Temp;Humidity;BMP_temperature;BMP_pressure;BME280_temperature;BME280_humidity;BME280_pressure;Samples;Min_cycle;Max_cycle;Signal;HPM_P1;HPM_P2
2023/11/29 00:01:04;;;;;;;20.25;7.95;;;-2.50;99.90;;;;;;5120951;27;20043;-60
2023/11/29 00:03:30;;;;;;;14.10;7.70;;;-2.50;99.90;;;;;;5118182;27;20036;-58
2023/11/29 00:05:55;;;;;;;13.40;8.10;;;-2.50;99.90;;;;;;5123930;27;20500;-59
2023/11/29 00:08:21;;;;;;;16.98;9.27;;;-2.50;99.90;;;;;;5120279;27;20134;-59
2023/11/29 00:10:46;;;;;;;16.10;9.32;;;-2.50;99.90;;;;;;5116836;27;20048;-59
2023/11/29 00:13:13;;;;;;;16.35;8.55;;;-2.50;99.90;;;;;;5117688;27;20114;-54
2023/11/29 00:15:39;;;;;;;14.73;8.48;;;-2.40;99.90;;;;;;5121588;27;20108;-57
2023/11/29 00:18:05;;;;;;;15.02;8.30;;;-2.40;99.90;;;;;;5107441;27;20038;-58
2023/11/29 00:20:30;;;;;;;13.80;8.05;;;-2.40;99.90;;;;;;5106551;28;20048;-58
2023/11/29 00:22:56;;;;;;;12.32;8.23;;;-2.40;99.90;;;;;;5103793;28;20139;-62
2023/11/29 00:25:22;;;;;;;16.50;7.80;;;-2.40;99.90;;;;;;5107657;28;20044;-61
2023/11/29 00:27:48;;;;;;;11.60;7.22;;;-2.40;99.90;;;;;;5103027;28;20088;-58
2023/11/29 00:30:14;;;;;;;15.85;7.35;;;-2.40;99.90;;;;;;5106802;28;20101;-60
2023/11/29 00:32:40;;;;;;;13.07;7.50;;;-2.40;99.90;;;;;;5104459;28;20039;-57
2023/11/29 00:35:05;;;;;;;16.48;7.40;;;-2.40;99.90;;;;;;5107689;28;20035;-59
2023/11/29 00:37:31;;;;;;;15.68;7.18;;;-2.40;99.90;;;;;;5098148;28;20043;-60
2023/11/29 00:39:57;;;;;;;13.80;7.10;;;-2.40;99.90;;;;;;5104258;28;20438;-60
2023/11/29 00:42:23;;;;;;;11.23;6.28;;;-2.40;99.90;;;;;;5097316;28;20089;-54
2023/11/29 00:44:49;;;;;;;13.32;7.00;;;-2.30;99.90;;;;;;5103758;28;20040;-58
2023/11/29 00:47:14;;;;;;;11.32;6.53;;;-2.30;99.90;;;;;;5102597;28;20048;-60
2023/11/29 00:49:40;;;;;;;9.63;5.90;;;-2.30;99.90;;;;;;5107082;28;20167;-59
2023/11/29 00:52:06;;;;;;;16.60;6.28;;;-2.30;99.90;;;;;;5098249;27;20031;-59
2023/11/29 00:54:31;;;;;;;12.57;6.70;;;-2.30;99.90;;;;;;5105925;28;20494;-57
2023/11/29 00:56:57;;;;;;;13.40;6.43;;;-2.30;99.90;;;;;;5102528;28;20127;-52
2023/11/29 00:59:23;;;;;;;10.57;6.35;;;-2.30;99.90;;;;;;5105699;28;20150;-59
2023/11/29 01:01:48;;;;;;;13.05;6.57;;;-2.20;99.90;;;;;;5106483;27;20081;-58
2023/11/29 01:04:14;;;;;;;11.10;5.93;;;-2.20;99.90;;;;;;5100143;28;20479;-61
2023/11/29 01:06:41;;;;;;;10.88;5.93;;;-2.20;99.90;;;;;;5102162;28;20554;-60
2023/11/29 01:09:07;;;;;;;11.23;6.13;;;-2.30;99.90;;;;;;5103581;28;20032;-60
2023/11/29 01:11:33;;;;;;;12.48;6.13;;;-2.30;99.90;;;;;;5103950;28;20062;-59
2023/11/29 01:13:59;;;;;;;10.70;6.10;;;-2.30;99.90;;;;;;5097939;28;20043;-59
2023/11/29 01:16:24;;;;;;;14.48;6.20;;;-2.30;99.90;;;;;;5104101;27;20653;-59
2023/11/29 01:18:53;;;;;;;11.68;5.78;;;-2.30;99.90;;;;;;5100796;28;20042;-61
2023/11/29 01:21:19;;;;;;;10.13;5.55;;;-2.30;99.90;;;;;;5101085;28;20105;-59
2023/11/29 01:23:44;;;;;;;12.32;6.70;;;-2.30;99.90;;;;;;5098065;28;20044;-60
2023/11/29 01:26:10;;;;;;;12.65;5.93;;;-2.30;99.90;;;;;;5103845;28;20458;-57
2023/11/29 01:28:36;;;;;;;8.82;5.20;;;-2.30;99.90;;;;;;5101566;28;20627;-60
2023/11/29 01:31:06;;;;;;;13.07;5.72;;;-2.20;99.90;;;;;;5100059;28;20040;-59
2023/11/29 01:33:32;;;;;;;12.45;5.75;;;-2.20;99.90;;;;;;5104200;27;20074;-57
2023/11/29 01:35:58;;;;;;;9.15;5.30;;;-2.10;99.90;;;;;;5103854;28;20615;-56
2023/11/29 01:38:23;;;;;;;9.95;5.10;;;-2.10;99.90;;;;;;5107670;27;20035;-57
2023/11/29 01:40:49;;;;;;;10.43;5.00;;;-2.10;99.90;;;;;;5107667;27;20035;-56
2023/11/29 01:43:14;;;;;;;9.70;5.55;;;-2.10;99.90;;;;;;5101656;28;20042;-54
2023/11/29 01:45:40;;;;;;;10.85;5.03;;;-2.10;99.90;;;;;;5104046;28;20154;-53
2023/11/29 01:48:06;;;;;;;10.45;5.03;;;-2.10;99.90;;;;;;5101444;27;20067;-57
2023/11/29 01:50:36;;;;;;;9.50;5.03;;;-2.10;99.90;;;;;;5109290;27;20532;-57
2023/11/29 01:53:02;;;;;;;9.20;4.93;;;-2.10;99.90;;;;;;5102340;27;20031;-60
2023/11/29 01:55:28;;;;;;;9.82;4.85;;;-2.10;99.90;;;;;;5104381;27;20050;-55
2023/11/29 01:57:54;;;;;;;7.90;5.07;;;-2.10;99.90;;;;;;5101391;28;20040;-53
2023/11/29 02:00:20;;;;;;;12.07;4.78;;;-2.00;99.90;;;;;;5108787;27;20384;-59
2023/11/29 02:02:47;;;;;;;7.63;3.92;;;-2.10;99.90;;;;;;5095861;27;20095;-60
2023/11/29 02:05:12;;;;;;;10.10;4.18;;;-2.10;99.90;;;;;;5107177;27;20084;-56
2023/11/29 02:07:38;;;;;;;10.02;3.97;;;-2.10;99.90;;;;;;5101304;28;20047;-60
2023/11/29 02:10:05;;;;;;;8.07;4.45;;;-2.10;99.90;;;;;;5100302;27;20433;-59
2023/11/29 02:12:33;;;;;;;6.15;3.70;;;-2.10;99.90;;;;;;5102817;27;20725;-54
2023/11/29 02:14:58;;;;;;;7.55;3.85;;;-2.10;99.90;;;;;;5107028;27;20049;-53
2023/11/29 02:17:24;;;;;;;6.80;3.83;;;-2.10;99.90;;;;;;5100717;27;20122;-60
2023/11/29 02:19:51;;;;;;;7.68;4.18;;;-2.10;99.90;;;;;;5105848;28;20032;-59
2023/11/29 02:22:18;;;;;;;10.73;3.45;;;-2.10;99.90;;;;;;5103527;27;20708;-60
2023/11/29 02:24:47;;;;;;;7.57;3.33;;;-2.10;99.90;;;;;;5105371;27;20069;-55
2023/11/29 02:27:13;;;;;;;7.50;3.55;;;-2.20;99.90;;;;;;5102017;27;20044;-53
2023/11/29 02:29:39;;;;;;;6.55;3.05;;;-2.20;99.90;;;;;;5108640;27;20123;-59
2023/11/29 02:32:07;;;;;;;8.95;3.78;;;-2.20;99.90;;;;;;5101772;27;20600;-60
2023/11/29 02:34:35;;;;;;;5.47;2.78;;;-2.20;99.90;;;;;;5104967;27;20510;-59
2023/11/29 02:37:02;;;;;;;6.45;3.13;;;-2.20;99.90;;;;;;5102719;28;20608;-57
2023/11/29 02:39:27;;;;;;;9.52;3.03;;;-2.10;99.90;;;;;;5101673;28;20672;-59
2023/11/29 02:41:53;;;;;;;6.75;2.38;;;-2.10;99.90;;;;;;5103818;28;20039;-58
2023/11/29 02:44:19;;;;;;;7.75;3.70;;;-2.00;99.90;;;;;;5102071;28;20031;-54
2023/11/29 02:46:44;;;;;;;8.88;3.60;;;-2.10;99.90;;;;;;5102067;28;20035;-59
2023/11/29 02:49:10;;;;;;;6.65;3.00;;;-2.00;99.90;;;;;;5100967;28;20379;-58
2023/11/29 02:51:36;;;;;;;7.60;3.53;;;-2.00;99.90;;;;;;5103201;28;20551;-59
2023/11/29 02:54:01;;;;;;;10.70;3.97;;;-2.00;99.90;;;;;;5098530;28;20115;-61
2023/11/29 02:56:30;;;;;;;10.68;3.10;;;-2.00;99.90;;;;;;5104097;28;20057;-58
2023/11/29 02:58:56;;;;;;;7.95;3.08;;;-1.90;99.90;;;;;;5098999;28;20039;-59
2023/11/29 03:01:21;;;;;;;5.80;3.25;;;-1.90;99.90;;;;;;5102119;28;20126;-57
2023/11/29 03:03:47;;;;;;;7.47;3.25;;;-1.90;99.90;;;;;;5096337;28;20028;-59
2023/11/29 03:06:12;;;;;;;8.18;3.85;;;-1.90;99.90;;;;;;5101372;28;20048;-57
2023/11/29 03:08:38;;;;;;;8.88;3.80;;;-1.80;99.90;;;;;;5096622;28;20089;-58
2023/11/29 03:11:04;;;;;;;9.05;3.63;;;-1.80;99.90;;;;;;5094547;28;20032;-61
2023/11/29 03:13:29;;;;;;;11.52;4.00;;;-1.80;99.90;;;;;;5102690;28;20046;-59
2023/11/29 03:15:55;;;;;;;9.18;3.63;;;-1.70;99.90;;;;;;5104901;28;20274;-60
2023/11/29 03:18:21;;;;;;;9.25;3.47;;;-1.60;99.90;;;;;;5098282;28;20036;-59
2023/11/29 03:20:47;;;;;;;7.43;3.83;;;-1.60;99.90;;;;;;5098116;28;20036;-60
2023/11/29 03:23:12;;;;;;;8.32;4.15;;;-1.60;99.90;;;;;;5096896;28;20035;-58
2023/11/29 03:25:38;;;;;;;9.82;4.60;;;-1.50;99.90;;;;;;5104162;28;20050;-56
2023/11/29 03:28:04;;;;;;;7.97;4.50;;;-1.40;99.90;;;;;;5097985;28;20131;-59
2023/11/29 03:30:30;;;;;;;12.73;4.63;;;-1.40;99.90;;;;;;5102659;28;20126;-61
2023/11/29 03:32:55;;;;;;;11.43;4.30;;;-1.40;99.90;;;;;;5103840;28;20036;-61
2023/11/29 03:35:21;;;;;;;8.23;4.38;;;-1.40;99.90;;;;;;5097392;28;20036;-60
2023/11/29 03:37:47;;;;;;;9.57;5.30;;;-1.40;99.90;;;;;;5102350;28;20039;-61
2023/11/29 03:40:12;;;;;;;11.15;4.95;;;-1.40;99.90;;;;;;5104135;28;20100;-60
2023/11/29 03:42:38;;;;;;;14.75;5.07;;;-1.40;99.90;;;;;;5101928;28;20031;-56
2023/11/29 03:45:04;;;;;;;11.95;6.20;;;-1.40;99.90;;;;;;5104865;28;20700;-54
2023/11/29 03:47:29;;;;;;;11.18;5.07;;;-1.50;99.90;;;;;;5099915;28;20779;-60
2023/11/29 03:49:55;;;;;;;11.05;5.65;;;-1.50;99.90;;;;;;5103872;28;20034;-60
2023/11/29 03:52:24;;;;;;;11.50;6.75;;;-1.50;99.90;;;;;;5099601;28;20035;-60
2023/11/29 03:54:50;;;;;;;12.10;5.53;;;-1.40;99.90;;;;;;5105712;28;20035;-60
2023/11/29 03:57:15;;;;;;;13.18;5.82;;;-1.40;99.90;;;;;;5105341;28;20061;-59
2023/11/29 03:59:41;;;;;;;10.35;5.40;;;-1.40;99.90;;;;;;5100777;28;20032;-51
2023/11/29 04:02:07;;;;;;;8.90;4.85;;;-1.40;99.90;;;;;;5102542;27;20032;-57
2023/11/29 04:04:32;;;;;;;11.73;5.50;;;-1.30;99.90;;;;;;5104147;28;20631;-54
2023/11/29 04:07:02;;;;;;;13.40;5.22;;;-1.30;99.90;;;;;;5102932;28;20047;-60
2023/11/29 04:09:27;;;;;;;11.68;6.03;;;-1.20;99.90;;;;;;5105982;28;20450;-57
2023/11/29 04:11:56;;;;;;;13.77;5.43;;;-1.20;99.90;;;;;;5104878;28;20036;-62
2023/11/29 04:14:22;;;;;;;10.77;6.07;;;-1.20;99.90;;;;;;5104069;28;20067;-61
2023/11/29 04:16:48;;;;;;;10.55;5.50;;;-1.20;99.90;;;;;;5104897;28;20070;-57
2023/11/29 04:19:13;;;;;;;13.40;6.40;;;-1.20;99.90;;;;;;5104394;28;20036;-58
2023/11/29 04:21:39;;;;;;;10.57;5.90;;;-1.10;99.90;;;;;;5106704;28;20046;-60
2023/11/29 04:24:05;;;;;;;15.55;7.38;;;-1.10;99.90;;;;;;5103038;28;20044;-60
2023/11/29 04:26:35;;;;;;;12.63;6.80;;;-1.10;99.90;;;;;;5099343;28;20403;-59
2023/11/29 04:29:02;;;;;;;13.55;6.38;;;-1.00;99.90;;;;;;5102235;28;20043;-59
2023/11/29 04:31:30;;;;;;;17.40;6.28;;;-1.00;99.90;;;;;;5106080;28;20035;-58
2023/11/29 04:33:55;;;;;;;11.73;6.65;;;-1.00;99.90;;;;;;5102028;28;20032;-55
2023/11/29 04:36:21;;;;;;;12.60;7.00;;;-0.90;99.90;;;;;;5102485;28;20074;-58
2023/11/29 04:38:48;;;;;;;15.68;6.93;;;-0.90;99.90;;;;;;5100842;28;20024;-59
2023/11/29 04:41:15;;;;;;;14.38;7.53;;;-0.90;99.90;;;;;;5107684;28;20051;-57
2023/11/29 04:43:41;;;;;;;16.38;7.95;;;-0.80;99.90;;;;;;5101705;27;20108;-57
2023/11/29 04:46:07;;;;;;;17.02;8.10;;;-0.90;99.90;;;;;;5107415;28;20047;-56
2023/11/29 04:48:34;;;;;;;12.05;7.20;;;-0.80;99.90;;;;;;5099968;28;20044;-54
2023/11/29 04:50:59;;;;;;;17.75;6.90;;;-0.80;99.90;;;;;;5107141;28;20067;-56
2023/11/29 04:53:25;;;;;;;13.95;7.28;;;-0.80;99.90;;;;;;5097921;27;20167;-55
2023/11/29 04:55:52;;;;;;;15.80;7.22;;;-0.80;99.90;;;;;;5107172;28;20043;-60
2023/11/29 04:58:19;;;;;;;13.65;6.70;;;-0.80;99.90;;;;;;5100458;28;20099;-59
2023/11/29 05:00:47;;;;;;;15.30;6.60;;;-0.80;99.90;;;;;;5106441;28;20067;-60
2023/11/29 05:03:13;;;;;;;17.67;7.15;;;-0.70;99.90;;;;;;5095556;27;20036;-60
2023/11/29 05:05:39;;;;;;;14.18;6.35;;;-0.70;99.90;;;;;;5106243;27;20108;-58
2023/11/29 05:08:05;;;;;;;14.23;5.97;;;-0.70;99.90;;;;;;5100645;28;20407;-57
2023/11/29 05:10:31;;;;;;;13.98;6.50;;;-0.70;99.90;;;;;;5105709;28;20046;-60
2023/11/29 05:12:56;;;;;;;12.73;7.03;;;-0.70;99.90;;;;;;5100444;28;20036;-56
2023/11/29 05:15:22;;;;;;;13.90;6.63;;;-0.70;99.90;;;;;;5106477;28;20055;-55
2023/11/29 05:17:47;;;;;;;10.43;6.15;;;-0.70;99.90;;;;;;5104731;28;20035;-59
2023/11/29 05:20:13;;;;;;;10.85;6.18;;;-0.70;99.90;;;;;;5106801;28;20588;-59
2023/11/29 05:22:39;;;;;;;11.00;6.10;;;-0.70;99.90;;;;;;5094507;27;20410;-59
2023/11/29 05:25:05;;;;;;;9.52;5.47;;;-0.70;99.90;;;;;;5104978;27;20040;-61
2023/11/29 05:27:31;;;;;;;11.82;5.60;;;-0.70;99.90;;;;;;5099318;28;20055;-61
2023/11/29 05:29:56;;;;;;;11.25;6.25;;;-0.70;99.90;;;;;;5106688;28;20035;-61
2023/11/29 05:32:22;;;;;;;10.00;5.07;;;-0.70;99.90;;;;;;5100786;28;20419;-62
2023/11/29 05:34:47;;;;;;;12.23;5.07;;;-0.70;99.90;;;;;;5106724;28;20040;-59
2023/11/29 05:37:14;;;;;;;10.25;5.80;;;-0.70;99.90;;;;;;5100274;28;20071;-55
2023/11/29 05:39:39;;;;;;;14.23;5.45;;;-0.70;99.90;;;;;;5105641;28;20036;-59
2023/11/29 05:42:05;;;;;;;13.82;5.68;;;-0.70;99.90;;;;;;5102056;28;20040;-55
2023/11/29 05:44:34;;;;;;;16.65;5.53;;;-0.60;99.90;;;;;;5105308;28;20036;-61
2023/11/29 05:47:03;;;;;;;10.32;5.57;;;-0.60;99.90;;;;;;5101730;27;20043;-58
2023/11/29 05:49:29;;;;;;;7.68;5.13;;;-0.60;99.90;;;;;;5103513;28;20047;-61
2023/11/29 05:51:54;;;;;;;8.35;5.05;;;-0.60;99.90;;;;;;5102258;28;20743;-60
2023/11/29 05:54:20;;;;;;;11.15;5.25;;;-0.60;99.90;;;;;;5102546;27;20047;-59
2023/11/29 05:56:48;;;;;;;9.63;5.28;;;-0.60;99.90;;;;;;5102754;28;20061;-54
2023/11/29 05:59:14;;;;;;;8.80;4.88;;;-0.60;99.90;;;;;;5101775;28;20085;-61
2023/11/29 06:01:39;;;;;;;9.50;5.35;;;-0.60;99.90;;;;;;5103555;28;20919;-55
2023/11/29 06:04:05;;;;;;;8.52;4.53;;;-0.60;99.90;;;;;;5101057;28;20036;-61
2023/11/29 06:06:35;;;;;;;9.10;5.25;;;-0.60;99.90;;;;;;5104187;28;20547;-55
2023/11/29 06:09:01;;;;;;;9.13;4.70;;;-0.60;99.90;;;;;;5100095;28;20048;-55
2023/11/29 06:11:27;;;;;;;12.75;5.20;;;-0.60;99.90;;;;;;5105068;28;20100;-52
2023/11/29 06:13:52;;;;;;;9.55;5.85;;;-0.60;99.90;;;;;;5099301;28;20035;-59
2023/11/29 06:16:19;;;;;;;9.35;5.43;;;-0.60;99.90;;;;;;5103791;28;20035;-58
2023/11/29 06:18:44;;;;;;;11.45;5.60;;;-0.60;99.90;;;;;;5098962;28;20088;-61
2023/11/29 06:21:11;;;;;;;9.23;5.03;;;-0.60;99.90;;;;;;5105841;28;20778;-62
2023/11/29 06:23:36;;;;;;;10.15;5.18;;;-0.50;99.90;;;;;;5098417;28;20112;-60
2023/11/29 06:26:04;;;;;;;7.80;4.93;;;-0.50;99.90;;;;;;5105792;28;20043;-57
2023/11/29 06:28:30;;;;;;;10.73;4.82;;;-0.50;99.90;;;;;;5090067;28;20055;-59
2023/11/29 06:30:58;;;;;;;12.10;6.30;;;-0.50;99.90;;;;;;5103586;28;20130;-57
2023/11/29 06:33:23;;;;;;;9.02;5.30;;;-0.50;99.90;;;;;;5103801;28;20152;-61
2023/11/29 06:35:50;;;;;;;9.43;4.63;;;-0.50;99.90;;;;;;5105171;28;20166;-55
2023/11/29 06:38:16;;;;;;;24.45;5.65;;;-0.50;99.90;;;;;;5104447;28;20080;-56
2023/11/29 06:40:42;;;;;;;8.40;4.60;;;-0.50;99.90;;;;;;5104997;28;20055;-58
2023/11/29 06:43:08;;;;;;;8.23;5.10;;;-0.50;99.90;;;;;;5094564;28;20044;-54
2023/11/29 06:45:33;;;;;;;9.10;5.00;;;-0.60;99.90;;;;;;5102637;28;20043;-59
2023/11/29 06:47:59;;;;;;;7.65;4.70;;;-0.50;99.90;;;;;;5097746;28;20039;-59
2023/11/29 06:50:25;;;;;;;8.60;5.13;;;-0.60;99.90;;;;;;5113078;27;20043;-58
2023/11/29 06:52:50;;;;;;;6.47;3.92;;;-0.60;99.90;;;;;;5103617;28;20058;-55
2023/11/29 06:55:16;;;;;;;8.82;4.97;;;-0.60;99.90;;;;;;5096115;28;20622;-57
2023/11/29 06:57:43;;;;;;;8.45;4.82;;;-0.60;99.90;;;;;;5094779;28;20519;-57
2023/11/29 07:00:10;;;;;;;6.82;4.25;;;-0.60;99.90;;;;;;5105060;27;20035;-57
2023/11/29 07:02:39;;;;;;;6.97;3.72;;;-0.50;99.90;;;;;;5096636;28;20047;-60
2023/11/29 07:05:10;;;;;;;5.25;3.53;;;-0.50;99.90;;;;;;5105133;28;20122;-58
2023/11/29 07:07:37;;;;;;;9.25;4.07;;;-0.50;99.90;;;;;;5102568;28;20511;-56
2023/11/29 07:10:05;;;;;;;5.95;3.63;;;-0.50;99.90;;;;;;5102412;28;20088;-58
2023/11/29 07:12:30;;;;;;;7.63;3.75;;;-0.50;99.90;;;;;;5093883;28;20050;-56
2023/11/29 07:14:58;;;;;;;9.10;4.15;;;-0.50;99.90;;;;;;5100322;28;20044;-59
2023/11/29 07:17:24;;;;;;;6.90;4.00;;;-0.60;99.90;;;;;;5098559;28;20632;-60
2023/11/29 07:19:49;;;;;;;7.47;3.53;;;-0.60;99.90;;;;;;5103906;28;20054;-58
2023/11/29 07:22:15;;;;;;;6.50;3.55;;;-0.60;99.90;;;;;;5096513;28;20054;-58
2023/11/29 07:24:43;;;;;;;5.60;3.17;;;-0.50;99.90;;;;;;5099388;28;20048;-60
2023/11/29 07:27:09;;;;;;;7.47;3.80;;;-0.50;99.90;;;;;;5099049;28;20167;-59
2023/11/29 07:29:35;;;;;;;8.10;3.72;;;-0.40;99.90;;;;;;5103123;28;20044;-58
2023/11/29 07:32:00;;;;;;;6.78;3.90;;;-0.40;99.90;;;;;;5101843;28;20039;-58
2023/11/29 07:34:26;;;;;;;5.63;3.70;;;-0.30;99.90;;;;;;5109039;27;20081;-59
2023/11/29 07:36:52;;;;;;;6.32;3.88;;;-0.30;99.90;;;;;;5107734;28;20095;-58
2023/11/29 07:39:21;;;;;;;8.90;4.20;;;-0.20;99.90;;;;;;5114739;27;20135;-61
2023/11/29 07:41:47;;;;;;;7.45;4.32;;;-0.20;99.90;;;;;;5106108;28;20039;-61
2023/11/29 07:44:16;;;;;;;6.03;3.95;;;-0.10;99.90;;;;;;5103148;28;20533;-58
2023/11/29 07:46:42;;;;;;;9.90;4.38;;;-0.10;99.90;;;;;;5103621;28;20047;-61
2023/11/29 07:49:12;;;;;;;8.10;3.83;;;-0.10;99.90;;;;;;5108293;28;20380;-60
2023/11/29 07:51:44;;;;;;;6.80;4.10;;;0.00;99.90;;;;;;5107581;27;20188;-55
2023/11/29 07:54:10;;;;;;;7.47;4.35;;;0.00;99.90;;;;;;5099938;28;20044;-54
2023/11/29 07:56:36;;;;;;;6.70;4.10;;;0.00;99.90;;;;;;5099329;27;20059;-60
2023/11/29 07:59:01;;;;;;;6.00;3.90;;;0.00;99.90;;;;;;5105755;27;20661;-57
2023/11/29 08:01:27;;;;;;;8.30;3.72;;;0.00;99.90;;;;;;5106700;28;20653;-60
2023/11/29 08:03:56;;;;;;;7.72;4.40;;;0.00;99.90;;;;;;5096748;28;20054;-61
2023/11/29 08:06:21;;;;;;;5.82;3.90;;;0.00;99.90;;;;;;5100176;28;20047;-60
2023/11/29 08:08:47;;;;;;;6.72;4.03;;;0.00;99.90;;;;;;5094688;28;20040;-57
2023/11/29 08:11:15;;;;;;;10.75;4.90;;;0.00;99.90;;;;;;5103596;28;20102;-61
2023/11/29 08:13:40;;;;;;;9.55;4.22;;;0.00;99.90;;;;;;5105743;28;20040;-50
2023/11/29 08:16:06;;;;;;;12.25;5.70;;;0.00;99.90;;;;;;5108465;28;20039;-60
2023/11/29 08:18:32;;;;;;;8.40;5.13;;;0.00;99.90;;;;;;5105638;28;20039;-59
2023/11/29 08:20:58;;;;;;;7.05;4.70;;;0.00;99.90;;;;;;5103357;28;20038;-59
2023/11/29 08:23:24;;;;;;;8.43;5.05;;;0.00;99.90;;;;;;5106200;28;20039;-60
2023/11/29 08:25:50;;;;;;;8.73;5.78;;;0.00;99.90;;;;;;5103637;28;20462;-62
2023/11/29 08:28:16;;;;;;;11.88;5.35;;;0.00;99.90;;;;;;5105731;28;20048;-59
2023/11/29 08:30:42;;;;;;;9.05;5.30;;;0.00;99.90;;;;;;5101709;27;20048;-62
2023/11/29 08:33:08;;;;;;;9.68;5.22;;;0.00;99.90;;;;;;5103599;28;20035;-59
2023/11/29 08:35:34;;;;;;;8.07;4.68;;;0.00;99.90;;;;;;5105389;28;20127;-61
2023/11/29 08:38:00;;;;;;;7.25;4.60;;;0.20;99.90;;;;;;5104894;28;20047;-57
2023/11/29 08:40:25;;;;;;;8.15;3.88;;;0.40;99.90;;;;;;5107515;28;20567;-56
2023/11/29 08:42:51;;;;;;;7.38;4.53;;;0.70;99.90;;;;;;5106212;28;20042;-62
2023/11/29 08:45:17;;;;;;;6.75;4.05;;;0.90;99.90;;;;;;5102346;28;20060;-58
2023/11/29 08:47:42;;;;;;;5.88;3.40;;;0.90;99.90;;;;;;5105526;28;20075;-61
2023/11/29 08:50:09;;;;;;;7.95;4.03;;;0.80;99.90;;;;;;5101787;28;20130;-59
2023/11/29 08:52:35;;;;;;;5.70;4.07;;;0.70;99.90;;;;;;5105690;28;20040;-59
2023/11/29 08:55:01;;;;;;;6.40;3.92;;;0.60;99.90;;;;;;5100887;28;20627;-57
2023/11/29 08:57:27;;;;;;;9.35;4.03;;;0.50;99.90;;;;;;5101186;28;20503;-60
2023/11/29 08:59:53;;;;;;;10.77;4.13;;;0.40;99.90;;;;;;5103234;27;20040;-54
2023/11/29 09:02:21;;;;;;;6.50;3.78;;;0.40;99.90;;;;;;5101795;28;20784;-59
2023/11/29 09:04:50;;;;;;;8.13;4.18;;;0.30;99.90;;;;;;5100769;28;20032;-60
2023/11/29 09:07:17;;;;;;;7.18;4.00;;;0.30;99.90;;;;;;5101867;28;20053;-55
2023/11/29 09:09:45;;;;;;;8.90;4.15;;;0.40;99.90;;;;;;5110193;27;20066;-57
2023/11/29 09:12:11;;;;;;;5.30;3.78;;;0.40;99.90;;;;;;5105385;28;20056;-56
2023/11/29 09:14:38;;;;;;;7.68;3.75;;;0.40;99.90;;;;;;5106613;28;20039;-57
2023/11/29 09:17:04;;;;;;;5.20;3.65;;;0.50;99.90;;;;;;5105869;27;20236;-57
2023/11/29 09:19:34;;;;;;;5.95;3.72;;;0.60;99.90;;;;;;5109398;27;20105;-56
2023/11/29 09:22:07;;;;;;;5.28;3.50;;;0.60;99.90;;;;;;5104640;28;20072;-56
2023/11/29 09:24:33;;;;;;;7.85;3.55;;;0.80;99.90;;;;;;5103031;27;20035;-59
2023/11/29 09:26:59;;;;;;;4.82;3.03;;;0.90;99.90;;;;;;5105911;27;20036;-55
2023/11/29 09:29:28;;;;;;;5.78;3.28;;;1.10;99.90;;;;;;5102771;27;20051;-55
2023/11/29 09:31:54;;;;;;;6.15;3.60;;;1.00;99.90;;;;;;5083931;28;20039;-59
2023/11/29 09:34:20;;;;;;;5.60;3.05;;;1.00;99.90;;;;;;5089847;28;20139;-59
2023/11/29 09:36:46;;;;;;;4.85;3.00;;;0.90;99.90;;;;;;5083289;28;20055;-51
2023/11/29 09:39:13;;;;;;;4.88;3.03;;;0.80;99.90;;;;;;5083424;28;20039;-56
2023/11/29 09:41:39;;;;;;;4.57;3.17;;;0.80;99.90;;;;;;5080324;28;20039;-54
2023/11/29 09:44:05;;;;;;;4.95;2.80;;;0.90;99.90;;;;;;5084401;28;20048;-54
2023/11/29 09:46:31;;;;;;;3.90;2.33;;;0.80;99.90;;;;;;5084911;28;20050;-57
2023/11/29 09:49:00;;;;;;;4.07;2.53;;;0.80;99.90;;;;;;5083575;28;20036;-57
2023/11/29 09:51:27;;;;;;;5.40;2.33;;;0.80;99.90;;;;;;5084944;28;20076;-58
2023/11/29 09:53:53;;;;;;;3.67;2.15;;;0.90;99.90;;;;;;5083230;28;20043;-59
2023/11/29 09:56:19;;;;;;;3.85;2.25;;;0.90;99.90;;;;;;5084287;28;20543;-60
2023/11/29 09:58:45;;;;;;;2.90;2.10;;;0.90;99.90;;;;;;5084765;28;20150;-59
2023/11/29 10:01:12;;;;;;;3.30;1.88;;;1.10;99.90;;;;;;5084733;28;20036;-53
2023/11/29 10:03:37;;;;;;;7.68;2.28;;;1.40;99.90;;;;;;5094246;28;20039;-57
2023/11/29 10:06:04;;;;;;;2.75;1.65;;;1.50;99.90;;;;;;5088863;28;20040;-53
2023/11/29 10:08:30;;;;;;;3.22;2.20;;;1.30;99.90;;;;;;5094246;28;20044;-55
2023/11/29 10:10:56;;;;;;;2.50;1.67;;;1.20;99.90;;;;;;5099085;28;20653;-58
2023/11/29 10:13:22;;;;;;;2.47;1.63;;;1.00;99.90;;;;;;5090725;28;20048;-58
2023/11/29 10:15:49;;;;;;;3.17;1.90;;;1.00;99.90;;;;;;5095997;28;20127;-55
2023/11/29 10:18:17;;;;;;;2.60;1.83;;;1.00;99.90;;;;;;5093186;28;20671;-56
2023/11/29 10:20:50;;;;;;;2.97;1.95;;;1.00;99.90;;;;;;5095485;28;20063;-55
2023/11/29 10:23:16;;;;;;;3.25;1.75;;;0.90;99.90;;;;;;5095035;28;20040;-52
2023/11/29 10:25:44;;;;;;;3.00;2.00;;;0.90;99.90;;;;;;5101375;28;20479;-54
2023/11/29 10:28:11;;;;;;;2.92;1.92;;;1.00;99.90;;;;;;5094858;28;20082;-55
2023/11/29 10:30:36;;;;;;;2.40;2.03;;;1.00;99.90;;;;;;5093956;28;20364;-58
2023/11/29 10:33:04;;;;;;;5.85;2.40;;;1.00;99.90;;;;;;5086605;28;20073;-60
2023/11/29 10:35:32;;;;;;;2.70;1.95;;;1.00;99.90;;;;;;5088591;28;20044;-58
2023/11/29 10:38:11;;;;;;;2.53;1.90;;;1.00;99.90;;;;;;5085972;28;20051;-53
2023/11/29 10:40:39;;;;;;;2.92;2.22;;;1.00;99.90;;;;;;5084392;28;20040;-60
2023/11/29 10:43:09;;;;;;;4.80;2.20;;;1.00;99.90;;;;;;5080777;28;20028;-59
2023/11/29 10:45:36;;;;;;;3.28;1.90;;;1.00;99.90;;;;;;5080756;28;20075;-53
2023/11/29 10:48:16;;;;;;;2.55;1.80;;;1.00;99.90;;;;;;5078580;28;20039;-57
2023/11/29 10:50:46;;;;;;;2.75;2.08;;;1.00;99.90;;;;;;5080308;28;20071;-58
2023/11/29 10:53:12;;;;;;;3.92;2.08;;;1.00;99.90;;;;;;5081047;28;20616;-57
2023/11/29 10:55:39;;;;;;;9.20;2.45;;;0.90;99.90;;;;;;5080414;28;20032;-59
2023/11/29 10:58:23;;;;;;;4.25;2.30;;;1.00;99.90;;;;;;5077846;28;20146;-59
2023/11/29 11:00:49;;;;;;;3.67;2.30;;;0.90;99.90;;;;;;5088775;28;20720;-60
2023/11/29 11:03:41;;;;;;;2.92;2.45;;;0.90;99.90;;;;;;5097001;28;20035;-56
2023/11/29 11:06:39;;;;;;;3.65;2.72;;;1.00;99.90;;;;;;5098910;28;20126;-60
2023/11/29 11:09:36;;;;;;;4.63;2.53;;;1.00;99.90;;;;;;5087779;28;20430;-56
2023/11/29 11:12:03;;;;;;;3.72;2.40;;;1.00;99.90;;;;;;5101061;28;20065;-55
2023/11/29 11:14:53;;;;;;;2.88;2.08;;;0.90;99.90;;;;;;5105064;28;20039;-55
2023/11/29 11:17:20;;;;;;;3.38;1.90;;;0.90;99.90;;;;;;5098733;28;20047;-58
2023/11/29 11:19:47;;;;;;;3.45;2.30;;;1.00;99.90;;;;;;5101869;28;20046;-54
2023/11/29 11:22:14;;;;;;;4.63;2.60;;;1.00;99.90;;;;;;5101082;28;20511;-62
2023/11/29 11:25:07;;;;;;;4.43;2.00;;;1.00;99.90;;;;;;5098055;28;20051;-52
2023/11/29 11:27:38;;;;;;;3.08;2.30;;;1.00;99.90;;;;;;5096835;28;20055;-55
2023/11/29 11:30:18;;;;;;;6.82;2.38;;;0.90;99.90;;;;;;5101374;28;20039;-55
2023/11/29 11:32:48;;;;;;;5.65;2.63;;;0.80;99.90;;;;;;5077466;28;20047;-58
2023/11/29 11:35:16;;;;;;;6.18;3.15;;;0.80;99.90;;;;;;5080697;28;20028;-64
2023/11/29 11:37:59;;;;;;;3.78;3.03;;;0.80;99.90;;;;;;5080374;28;20063;-56
2023/11/29 11:40:27;;;;;;;7.82;3.65;;;0.90;99.90;;;;;;5079347;28;20536;-63
2023/11/29 11:42:53;;;;;;;5.55;3.10;;;1.00;99.90;;;;;;5083222;28;20072;-61
2023/11/29 11:45:19;;;;;;;6.35;3.90;;;0.90;99.90;;;;;;5082722;28;20071;-57
2023/11/29 11:47:45;;;;;;;5.93;3.83;;;0.80;99.90;;;;;;5080807;28;20047;-61
2023/11/29 11:50:12;;;;;;;4.45;3.20;;;0.90;99.90;;;;;;5079153;28;20637;-54
2023/11/29 11:52:37;;;;;;;6.38;3.95;;;0.90;99.90;;;;;;5083076;28;20054;-61
2023/11/29 11:55:07;;;;;;;8.77;3.35;;;1.00;99.90;;;;;;5078335;28;20044;-61
2023/11/29 11:57:34;;;;;;;6.78;3.80;;;1.00;99.90;;;;;;5083798;28;20048;-60
2023/11/29 12:00:01;;;;;;;9.38;3.65;;;1.00;99.90;;;;;;5079459;28;20056;-59
2023/11/29 12:02:27;;;;;;;5.65;3.30;;;1.00;99.90;;;;;;5089119;28;20047;-60
2023/11/29 12:04:53;;;;;;;6.63;3.70;;;0.90;99.90;;;;;;5104620;28;20044;-59
2023/11/29 12:07:20;;;;;;;7.05;3.53;;;0.90;99.90;;;;;;5095742;28;20042;-57
2023/11/29 12:09:47;;;;;;;6.65;3.50;;;0.90;99.90;;;;;;5100895;28;20508;-58
2023/11/29 12:12:17;;;;;;;27.02;4.43;;;0.90;99.90;;;;;;5102263;28;20036;-59
2023/11/29 12:14:45;;;;;;;7.18;3.80;;;0.70;99.90;;;;;;5105499;27;20563;-59
2023/11/29 12:17:12;;;;;;;7.72;3.25;;;0.60;99.90;;;;;;5103931;27;20034;-60
2023/11/29 12:19:39;;;;;;;7.05;3.28;;;0.60;99.90;;;;;;5113720;27;20028;-61
2023/11/29 12:22:06;;;;;;;8.13;3.47;;;0.60;99.90;;;;;;5103933;28;20104;-60
2023/11/29 12:24:58;;;;;;;5.88;3.10;;;0.60;99.90;;;;;;5109767;27;20454;-60
2023/11/29 12:27:29;;;;;;;7.65;3.45;;;0.50;99.90;;;;;;5104586;27;20447;-61
2023/11/29 12:29:57;;;;;;;4.38;2.67;;;0.60;99.90;;;;;;5096364;28;20055;-58
2023/11/29 12:32:27;;;;;;;6.00;2.80;;;0.70;99.90;;;;;;5104988;27;20145;-57
2023/11/29 12:34:54;;;;;;;4.82;2.90;;;0.70;99.90;;;;;;5108837;28;20223;-58
2023/11/29 12:37:19;;;;;;;10.98;3.05;;;0.80;99.90;;;;;;5105163;28;20110;-59
2023/11/29 12:39:45;;;;;;;4.57;2.85;;;0.80;99.90;;;;;;5107357;28;20165;-60
2023/11/29 12:42:11;;;;;;;5.03;2.67;;;0.70;99.90;;;;;;5103899;28;20035;-59
2023/11/29 12:44:37;;;;;;;6.95;3.00;;;0.70;99.90;;;;;;5097891;28;20696;-56
2023/11/29 12:47:04;;;;;;;6.38;2.75;;;0.70;99.90;;;;;;5098957;27;20714;-54